Time;durP1;ratioP1;P1;durP2;ratioP2;P2;SDS_P1;SDS_P2;PMS_P1;PMS_P2;Temp;Humidity;BMP_temperature;BMP_pressure;BME280_temperature;BME280_humidity;BME280_pressure;Samples;Min_cycle;Max_cycle;Signal;HPM_P1;HPM_P2
2022/08/03 00:01:08;;;;;;;4.27;2.80;;;25.90;43.10;;;;;;5071853;28;21025;-87
2022/08/03 00:03:35;;;;;;;3.07;2.80;;;25.90;43.20;;;;;;5083847;28;20460;-87
2022/08/03 00:06:02;;;;;;;3.43;3.13;;;25.90;43.20;;;;;;5078742;28;20983;-87
2022/08/03 00:08:30;;;;;;;2.73;2.53;;;25.90;43.50;;;;;;5083303;28;20446;-87
2022/08/03 00:10:57;;;;;;;4.90;2.80;;;25.90;43.40;;;;;;5089743;28;20825;-88
2022/08/03 00:13:24;;;;;;;3.27;3.00;;;25.80;43.40;;;;;;5082999;28;20467;-88
2022/08/03 00:15:53;;;;;;;4.23;2.77;;;25.80;43.80;;;;;;5098354;28;20551;-88
2022/08/03 00:18:21;;;;;;;3.43;3.23;;;25.70;44.10;;;;;;5081103;28;20458;-88
2022/08/03 00:20:48;;;;;;;2.90;2.70;;;25.70;44.40;;;;;;5067199;28;20812;-88
2022/08/03 00:23:15;;;;;;;3.47;3.27;;;25.70;44.60;;;;;;5104808;28;20797;-88
2022/08/03 00:25:43;;;;;;;3.50;3.20;;;25.60;44.80;;;;;;5107141;28;20466;-88
2022/08/03 00:28:10;;;;;;;3.60;3.30;;;25.60;45.10;;;;;;5079115;28;20450;-87
2022/08/03 00:30:37;;;;;;;3.03;2.83;;;25.60;45.40;;;;;;5102760;28;20961;-87
2022/08/03 00:33:06;;;;;;;3.40;3.20;;;25.60;45.70;;;;;;5051671;28;20779;-88
2022/08/03 00:35:33;;;;;;;3.77;3.47;;;25.50;46.10;;;;;;5103406;28;20542;-87
2022/08/03 00:38:01;;;;;;;3.33;3.13;;;25.50;45.40;;;;;;5103373;28;20493;-88
2022/08/03 00:40:28;;;;;;;3.83;3.53;;;25.40;45.40;;;;;;5081847;28;20458;-89
2022/08/03 00:42:57;;;;;;;3.43;3.13;;;25.40;45.10;;;;;;5099867;28;20976;-87
2022/08/03 00:45:27;;;;;;;3.63;3.33;;;25.30;45.20;;;;;;5068153;28;21155;-88
2022/08/03 00:47:54;;;;;;;4.70;3.63;;;25.30;45.40;;;;;;5090089;28;20432;-88
2022/08/03 00:50:25;;;;;;;3.80;3.10;;;25.30;45.50;;;;;;5085723;28;20428;-88
2022/08/03 00:52:54;;;;;;;3.50;3.20;;;25.30;45.50;;;;;;5059150;28;20451;-89
2022/08/03 00:55:22;;;;;;;4.13;3.77;;;25.10;44.90;;;;;;5075732;28;20455;-87
2022/08/03 00:57:50;;;;;;;3.50;3.20;;;24.20;46.60;;;;;;5071280;28;20477;-88
2022/08/03 01:00:21;;;;;;;3.30;3.00;;;24.00;47.20;;;;;;5088496;28;20450;-89
2022/08/03 01:02:49;;;;;;;3.40;3.10;;;24.30;46.70;;;;;;5092520;28;20438;-88
2022/08/03 01:05:17;;;;;;;3.60;3.30;;;24.50;46.10;;;;;;5101949;28;20471;-88
2022/08/03 01:08:06;;;;;;;3.00;2.80;;;24.60;46.30;;;;;;5086394;28;21015;-88
2022/08/03 01:10:49;;;;;;;3.30;3.00;;;24.70;45.90;;;;;;5099218;28;20438;-89
2022/08/03 01:13:22;;;;;;;3.53;3.23;;;24.80;45.70;;;;;;5109935;28;20514;-87
2022/08/03 01:15:57;;;;;;;3.40;3.10;;;24.80;45.70;;;;;;5073222;28;20451;-89
2022/08/03 01:18:31;;;;;;;3.77;3.47;;;24.80;45.70;;;;;;5076855;28;20448;-86
2022/08/03 01:21:01;;;;;;;3.33;3.13;;;24.80;45.80;;;;;;5077364;28;20456;-87
2022/08/03 01:23:54;;;;;;;3.60;3.30;;;24.80;45.90;;;;;;5056648;28;20452;-87
2022/08/03 01:26:55;;;;;;;3.70;3.40;;;24.80;45.80;;;;;;5104720;28;20539;-87
2022/08/03 01:29:52;;;;;;;4.07;3.67;;;24.70;46.10;;;;;;5078791;28;20946;-88
2022/08/03 01:32:22;;;;;;;3.63;3.30;;;24.60;46.40;;;;;;5089094;28;20455;-87
2022/08/03 01:34:58;;;;;;;3.83;3.53;;;24.10;47.20;;;;;;5089646;28;20438;-87
2022/08/03 01:37:31;;;;;;;3.50;3.20;;;23.60;47.40;;;;;;5074108;28;20528;-86
2022/08/03 01:40:02;;;;;;;3.50;3.20;;;23.50;47.90;;;;;;5085990;28;20439;-87
2022/08/03 01:42:32;;;;;;;4.33;3.93;;;23.80;47.50;;;;;;5110053;28;20496;-87
2022/08/03 01:45:02;;;;;;;3.77;3.47;;;24.00;47.20;;;;;;5074253;28;20457;-87
2022/08/03 01:47:32;;;;;;;3.50;3.20;;;24.20;46.80;;;;;;5057068;28;20905;-87
2022/08/03 01:50:01;;;;;;;4.57;3.60;;;24.30;46.50;;;;;;5087611;28;20435;-86
2022/08/03 01:52:29;;;;;;;3.77;3.47;;;24.30;46.20;;;;;;5105762;28;20465;-88
2022/08/03 01:54:58;;;;;;;3.83;3.50;;;24.30;46.20;;;;;;5089494;28;20443;-87
2022/08/03 01:57:28;;;;;;;4.47;3.23;;;24.30;46.30;;;;;;5085673;28;20436;-88
2022/08/03 01:59:59;;;;;;;3.80;3.50;;;24.30;46.30;;;;;;5083650;28;20443;-87
2022/08/03 02:02:29;;;;;;;4.20;3.60;;;24.30;46.50;;;;;;5110181;28;20448;-87
2022/08/03 02:04:58;;;;;;;7.90;3.77;;;24.20;46.70;;;;;;5086596;28;20459;-87
2022/08/03 02:07:29;;;;;;;4.67;3.60;;;24.20;46.90;;;;;;5056694;28;20493;-88
2022/08/03 02:09:58;;;;;;;4.00;3.33;;;24.10;47.10;;;;;;5109153;28;20930;-87
2022/08/03 02:12:29;;;;;;;3.73;3.43;;;24.10;47.20;;;;;;5086260;28;20846;-87
2022/08/03 02:14:58;;;;;;;4.17;3.77;;;24.00;47.70;;;;;;5083871;28;20435;-87
2022/08/03 02:17:28;;;;;;;5.73;3.97;;;24.00;47.80;;;;;;5093660;28;20459;-87
2022/08/03 02:19:58;;;;;;;3.93;3.63;;;24.00;47.80;;;;;;5104820;28;20459;-87
2022/08/03 02:22:25;;;;;;;3.80;3.47;;;24.00;47.90;;;;;;5073807;28;20423;-87
2022/08/03 02:24:52;;;;;;;4.20;3.90;;;23.90;47.80;;;;;;5073332;28;20983;-87
2022/08/03 02:27:22;;;;;;;5.03;3.80;;;23.80;47.90;;;;;;5104483;28;20443;-87
2022/08/03 02:29:53;;;;;;;3.90;3.60;;;23.80;47.80;;;;;;5068277;28;20436;-87
2022/08/03 02:32:24;;;;;;;4.10;3.70;;;23.80;47.90;;;;;;5105569;28;20438;-88
2022/08/03 02:34:57;;;;;;;3.83;3.43;;;23.70;48.40;;;;;;5083513;28;20436;-86
2022/08/03 02:37:28;;;;;;;5.00;3.83;;;23.70;48.60;;;;;;5075155;28;20441;-87
2022/08/03 02:46:39;;;;;;;7.07;4.13;;;23.40;49.00;;;;;;5087847;28;20443;-88
2022/08/03 02:49:09;;;;;;;3.70;3.40;;;23.40;49.30;;;;;;5089789;28;20526;-87
2022/08/03 02:51:40;;;;;;;4.07;3.77;;;23.40;49.00;;;;;;5072683;28;20446;-87
2022/08/03 02:54:09;;;;;;;3.87;3.57;;;23.30;49.10;;;;;;5071117;28;20436;-88
2022/08/03 02:56:37;;;;;;;3.73;3.27;;;23.40;49.20;;;;;;5050484;28;20543;-85
2022/08/03 03:03:12;;;;;;;4.57;4.17;;;23.40;48.20;;;;;;5068956;28;20412;-88
2022/08/03 03:05:40;;;;;;;3.73;3.43;;;23.20;49.10;;;;;;5074410;28;20480;-87
2022/08/03 03:08:12;;;;;;;4.00;3.30;;;23.20;49.00;;;;;;5106815;28;20930;-87
2022/08/03 03:10:40;;;;;;;4.00;3.70;;;23.20;49.10;;;;;;5054991;28;20443;-88
2022/08/03 03:13:09;;;;;;;3.70;3.40;;;23.20;49.20;;;;;;5075191;28;20431;-88
2022/08/03 03:15:39;;;;;;;3.93;3.53;;;23.20;48.90;;;;;;5088641;28;20966;-87
2022/08/03 03:18:08;;;;;;;3.90;3.60;;;23.20;48.90;;;;;;5098332;28;20455;-88
2022/08/03 03:20:37;;;;;;;4.67;4.27;;;23.20;48.80;;;;;;5086979;28;20443;-86
2022/08/03 03:23:05;;;;;;;4.10;3.80;;;23.20;48.70;;;;;;5106342;28;20905;-88
2022/08/03 03:25:35;;;;;;;8.60;3.83;;;23.20;48.90;;;;;;5085877;28;20467;-88
2022/08/03 03:28:03;;;;;;;3.67;3.33;;;23.20;48.60;;;;;;5082461;28;20431;-88
2022/08/03 03:30:31;;;;;;;4.50;4.00;;;23.20;48.80;;;;;;5084418;28;20435;-88
2022/08/03 03:32:58;;;;;;;4.30;3.87;;;23.10;49.00;;;;;;5086122;28;20447;-87
2022/08/03 03:35:26;;;;;;;5.73;3.90;;;23.10;49.00;;;;;;5103119;28;20456;-88
2022/08/03 03:37:54;;;;;;;3.47;3.27;;;23.10;49.20;;;;;;5084094;28;20442;-88
2022/08/03 03:40:21;;;;;;;3.80;3.50;;;23.10;48.90;;;;;;5082276;28;20971;-88
2022/08/03 03:42:50;;;;;;;3.47;3.20;;;23.10;49.00;;;;;;5104108;28;20441;-88
2022/08/03 03:45:18;;;;;;;5.30;3.80;;;23.00;48.90;;;;;;5078270;28;20471;-90
2022/08/03 03:47:46;;;;;;;3.47;3.27;;;23.00;48.90;;;;;;5096751;28;20466;-91
2022/08/03 03:50:17;;;;;;;4.20;3.70;;;23.00;48.90;;;;;;5094824;28;20483;-90
2022/08/03 03:52:44;;;;;;;4.00;3.67;;;23.00;48.70;;;;;;5058714;28;20457;-91
2022/08/03 03:55:16;;;;;;;4.17;3.73;;;23.00;48.70;;;;;;5059551;28;20565;-90
2022/08/03 03:57:43;;;;;;;4.37;3.90;;;23.00;48.80;;;;;;5084953;28;20462;-92
2022/08/03 04:00:14;;;;;;;5.60;4.57;;;22.90;49.00;;;;;;5044548;28;20461;-91
2022/08/03 04:02:41;;;;;;;4.53;4.13;;;22.80;49.50;;;;;;5065667;28;20538;-91
2022/08/03 04:12:01;;;;;;;4.80;3.60;;;22.50;50.50;;;;;;5093786;28;20446;-88
2022/08/03 04:14:33;;;;;;;5.37;3.97;;;22.50;50.30;;;;;;5051147;28;20447;-89
2022/08/03 04:17:07;;;;;;;4.70;4.30;;;22.50;50.00;;;;;;5091824;28;20614;-88
2022/08/03 04:24:09;;;;;;;3.90;3.60;;;22.60;50.20;;;;;;5102439;28;20476;-89
2022/08/03 04:26:40;;;;;;;4.47;4.17;;;22.50;50.80;;;;;;5098992;28;21051;-88
2022/08/03 04:29:09;;;;;;;4.80;4.40;;;22.50;51.00;;;;;;5078510;28;21040;-89
2022/08/03 04:31:38;;;;;;;7.67;4.67;;;22.50;50.70;;;;;;5068497;28;20450;-88
2022/08/03 04:34:07;;;;;;;8.87;4.10;;;22.60;50.70;;;;;;5081862;28;20480;-89
2022/08/03 04:36:39;;;;;;;4.30;3.90;;;22.60;50.60;;;;;;5102102;28;20553;-88
2022/08/03 04:39:10;;;;;;;4.00;3.70;;;22.60;50.50;;;;;;5083554;28;20451;-90
2022/08/03 04:41:39;;;;;;;4.67;4.27;;;22.70;50.50;;;;;;5088466;28;20486;-89
2022/08/03 04:44:08;;;;;;;7.30;3.77;;;22.70;50.50;;;;;;5062243;28;20858;-90
2022/08/03 04:46:39;;;;;;;6.27;4.40;;;22.70;50.60;;;;;;5063794;28;20467;-89
2022/08/03 04:49:08;;;;;;;6.57;4.30;;;22.70;50.40;;;;;;5084778;28;20492;-89
2022/08/03 04:51:39;;;;;;;4.80;4.33;;;22.60;50.40;;;;;;5097554;28;20446;-88
2022/08/03 04:54:06;;;;;;;5.23;4.77;;;22.60;50.60;;;;;;5080413;28;20447;-88
2022/08/03 04:56:34;;;;;;;6.20;4.50;;;22.60;50.50;;;;;;5096725;28;20462;-90
2022/08/03 04:59:01;;;;;;;4.90;4.50;;;22.70;50.60;;;;;;5071462;28;20835;-88
2022/08/03 05:01:28;;;;;;;5.10;4.10;;;22.70;50.40;;;;;;5076451;28;20464;-89
2022/08/03 05:03:55;;;;;;;5.07;4.27;;;22.70;50.70;;;;;;5078535;28;20650;-89
2022/08/03 05:06:24;;;;;;;6.10;4.63;;;22.70;50.70;;;;;;5075388;28;20577;-89
2022/08/03 05:08:51;;;;;;;4.63;4.23;;;22.60;50.70;;;;;;5082751;28;20447;-89
2022/08/03 05:11:18;;;;;;;4.50;4.10;;;22.60;50.40;;;;;;5082729;28;20845;-89
2022/08/03 05:13:45;;;;;;;6.90;3.90;;;22.60;50.40;;;;;;5078223;28;20836;-88
2022/08/03 05:16:13;;;;;;;4.67;4.03;;;22.60;50.50;;;;;;5070979;28;20549;-89
2022/08/03 05:18:40;;;;;;;4.90;4.50;;;22.60;51.10;;;;;;5079022;28;20487;-89
2022/08/03 05:21:08;;;;;;;4.30;3.93;;;22.60;51.00;;;;;;5079485;28;20962;-88
2022/08/03 05:23:36;;;;;;;4.80;4.40;;;22.70;50.80;;;;;;5081571;28;20459;-89
2022/08/03 05:26:04;;;;;;;4.87;4.37;;;22.70;50.80;;;;;;5065417;28;20506;-88
2022/08/03 05:28:31;;;;;;;4.73;4.33;;;22.60;51.20;;;;;;5067156;28;20471;-89
2022/08/03 05:30:58;;;;;;;7.60;5.00;;;22.70;51.30;;;;;;5098975;28;20447;-88
2022/08/03 05:33:24;;;;;;;4.03;3.70;;;22.60;51.40;;;;;;5070955;28;20542;-88
2022/08/03 05:35:51;;;;;;;4.33;3.83;;;22.40;51.90;;;;;;5098808;28;20455;-89
2022/08/03 05:38:18;;;;;;;4.50;4.10;;;22.20;52.40;;;;;;5061758;28;20451;-88
2022/08/03 05:40:47;;;;;;;4.93;4.20;;;22.30;52.40;;;;;;5076790;28;20443;-90
2022/08/03 05:43:15;;;;;;;5.23;4.23;;;22.50;52.10;;;;;;5080520;28;20485;-91
2022/08/03 05:45:43;;;;;;;4.67;4.27;;;22.50;52.10;;;;;;5075809;28;20486;-90
2022/08/03 05:48:10;;;;;;;4.70;4.30;;;22.60;51.80;;;;;;5060268;28;20459;-89
2022/08/03 05:50:37;;;;;;;6.40;4.53;;;22.70;51.70;;;;;;5089938;28;20531;-89
2022/08/03 05:53:04;;;;;;;4.70;4.30;;;22.80;52.00;;;;;;5077049;28;20834;-89
2022/08/03 05:55:31;;;;;;;6.90;4.77;;;22.90;51.40;;;;;;5042862;28;20477;-88
2022/08/03 05:58:01;;;;;;;6.50;4.10;;;23.00;51.20;;;;;;5058632;28;20428;-89
2022/08/03 06:00:28;;;;;;;9.13;5.73;;;23.10;51.50;;;;;;5049792;28;20472;-89
2022/08/03 06:02:56;;;;;;;6.20;4.60;;;23.00;51.40;;;;;;5060478;28;20500;-89
2022/08/03 06:05:25;;;;;;;6.13;4.13;;;23.10;51.10;;;;;;5058410;28;20474;-90
2022/08/03 06:07:53;;;;;;;5.00;4.60;;;23.20;50.90;;;;;;5058693;28;20448;-90
2022/08/03 06:10:20;;;;;;;6.50;3.80;;;23.30;51.00;;;;;;5044730;28;20447;-90
2022/08/03 06:12:49;;;;;;;5.10;4.60;;;23.10;50.80;;;;;;5076548;28;20504;-89
2022/08/03 06:15:18;;;;;;;12.00;4.80;;;22.90;51.00;;;;;;5074414;28;20585;-88
2022/08/03 06:17:46;;;;;;;8.33;5.03;;;22.90;50.70;;;;;;5075438;28;20542;-88
2022/08/03 06:20:16;;;;;;;13.07;4.90;;;23.10;50.50;;;;;;5042693;28;20439;-88
2022/08/03 06:22:43;;;;;;;12.53;5.47;;;23.10;50.30;;;;;;5074186;28;20538;-90
2022/08/03 06:25:10;;;;;;;5.27;4.30;;;23.00;50.30;;;;;;5072291;28;20531;-90
2022/08/03 06:27:38;;;;;;;6.63;4.40;;;23.20;50.80;;;;;;5072987;28;20516;-88
2022/08/03 06:30:07;;;;;;;8.97;4.27;;;23.30;50.80;;;;;;5058710;28;20454;-89
2022/08/03 06:32:36;;;;;;;4.30;3.90;;;23.70;50.10;;;;;;5057873;28;20455;-90
2022/08/03 06:35:03;;;;;;;8.20;4.63;;;23.80;50.20;;;;;;5056043;28;21007;-88
2022/08/03 06:37:30;;;;;;;4.27;3.80;;;24.00;49.60;;;;;;5056575;28;20472;-87
2022/08/03 06:39:57;;;;;;;9.00;4.10;;;24.20;49.50;;;;;;5056299;28;20464;-90
2022/08/03 06:42:24;;;;;;;8.10;3.83;;;24.30;49.10;;;;;;5059792;28;20477;-88
2022/08/03 06:44:51;;;;;;;4.80;4.30;;;24.30;49.20;;;;;;5091514;28;20534;-89
2022/08/03 06:47:18;;;;;;;6.13;3.83;;;24.50;47.40;;;;;;5059398;28;20471;-88
2022/08/03 06:49:46;;;;;;;8.27;4.50;;;24.20;48.40;;;;;;5078070;28;20454;-90
2022/08/03 06:52:13;;;;;;;7.70;4.00;;;24.40;47.70;;;;;;5052836;28;20443;-88
2022/08/03 06:54:40;;;;;;;7.80;4.27;;;24.70;48.10;;;;;;5075405;28;20481;-88
2022/08/03 06:57:10;;;;;;;13.47;4.50;;;24.90;47.90;;;;;;5068959;28;20499;-89
2022/08/03 06:59:37;;;;;;;5.60;4.00;;;25.10;47.50;;;;;;5082917;28;20839;-88
2022/08/03 07:02:04;;;;;;;9.97;3.67;;;25.10;47.30;;;;;;5097111;28;20450;-90
2022/08/03 07:04:32;;;;;;;4.57;3.20;;;24.80;47.30;;;;;;5057345;28;20483;-92
2022/08/03 07:07:00;;;;;;;3.73;3.33;;;25.10;47.00;;;;;;5093216;28;20467;-89
2022/08/03 07:09:27;;;;;;;7.97;3.63;;;25.30;46.50;;;;;;5051514;28;20435;-88
2022/08/03 07:11:54;;;;;;;9.93;3.97;;;25.30;46.80;;;;;;5042177;28;20467;-89
2022/08/03 07:14:21;;;;;;;5.00;4.17;;;25.60;46.50;;;;;;5073160;28;20784;-89
2022/08/03 07:16:48;;;;;;;5.67;3.23;;;25.50;45.90;;;;;;5077552;28;20990;-89
2022/08/03 07:19:15;;;;;;;5.47;3.47;;;25.30;46.40;;;;;;5076743;28;20448;-88
2022/08/03 07:21:44;;;;;;;10.00;3.83;;;25.30;46.80;;;;;;5078349;28;20436;-88
2022/08/03 07:24:38;;;;;;;3.70;3.37;;;25.40;45.80;;;;;;5055498;28;20474;-89
2022/08/03 07:27:05;;;;;;;4.27;3.53;;;25.50;45.70;;;;;;5084336;28;20470;-91
2022/08/03 07:29:32;;;;;;;5.87;3.67;;;25.70;45.90;;;;;;5067673;28;20439;-88
2022/08/03 07:36:32;;;;;;;11.23;3.53;;;26.20;44.80;;;;;;5092976;28;20493;-89
2022/08/03 07:38:58;;;;;;;6.90;3.77;;;26.20;44.30;;;;;;5094571;28;20448;-89
2022/08/03 07:41:27;;;;;;;3.93;3.63;;;26.40;44.10;;;;;;5075463;28;20816;-90
2022/08/03 07:43:54;;;;;;;11.10;3.67;;;26.70;43.90;;;;;;5073590;28;20569;-88
2022/08/03 07:46:21;;;;;;;7.83;3.47;;;26.70;43.30;;;;;;5065361;28;20475;-88
2022/08/03 07:48:48;;;;;;;13.53;3.53;;;26.70;43.10;;;;;;5091666;28;20462;-89
2022/08/03 07:51:15;;;;;;;7.40;3.43;;;26.80;43.00;;;;;;5075622;28;20431;-89
2022/08/03 07:53:42;;;;;;;12.73;3.70;;;27.00;43.00;;;;;;5048733;28;20451;-89
2022/08/03 07:56:35;;;;;;;7.37;3.60;;;27.10;42.60;;;;;;5073057;28;20543;-89
2022/08/03 07:59:02;;;;;;;6.20;4.17;;;27.20;42.30;;;;;;5076574;28;20431;-89
2022/08/03 08:01:31;;;;;;;4.17;3.57;;;27.30;42.20;;;;;;5059071;28;20455;-88
2022/08/03 08:03:58;;;;;;;4.23;3.93;;;27.30;42.00;;;;;;5082394;28;20447;-90
2022/08/03 08:06:25;;;;;;;7.67;4.20;;;27.50;41.90;;;;;;5061864;28;20883;-88
2022/08/03 08:08:52;;;;;;;5.27;3.13;;;27.70;41.30;;;;;;5066006;28;21197;-89
2022/08/03 08:11:21;;;;;;;5.73;3.43;;;27.80;40.60;;;;;;5072063;28;20498;-88
2022/08/03 08:13:49;;;;;;;4.70;3.70;;;27.90;40.80;;;;;;5076863;28;20439;-88
2022/08/03 08:16:16;;;;;;;8.20;3.43;;;28.00;40.90;;;;;;5094356;28;20495;-88
2022/08/03 08:18:43;;;;;;;5.53;3.57;;;28.30;40.60;;;;;;5076602;28;20447;-90
2022/08/03 08:21:10;;;;;;;8.33;3.40;;;28.50;40.20;;;;;;5096649;28;20788;-88
2022/08/03 08:23:37;;;;;;;3.50;3.20;;;28.60;39.80;;;;;;5074823;28;20462;-89
2022/08/03 08:28:57;;;;;;;4.40;3.40;;;28.80;39.30;;;;;;5093969;28;20450;-88
2022/08/03 08:31:24;;;;;;;11.37;3.63;;;29.00;39.20;;;;;;5072097;28;20493;-90
2022/08/03 08:33:51;;;;;;;3.80;3.23;;;29.10;38.70;;;;;;5050863;28;20446;-91
2022/08/03 08:36:18;;;;;;;6.90;3.17;;;29.40;39.40;;;;;;5053352;28;20545;-90
2022/08/03 08:38:45;;;;;;;9.50;3.30;;;29.50;37.90;;;;;;5040869;28;20895;-88
2022/08/03 08:41:14;;;;;;;5.80;2.87;;;29.70;37.80;;;;;;5071098;28;20455;-90
2022/08/03 08:43:42;;;;;;;10.63;3.00;;;29.70;37.20;;;;;;5057179;28;20460;-87
2022/08/03 08:46:37;;;;;;;12.33;3.30;;;29.80;36.90;;;;;;5083079;28;20974;-88
2022/08/03 08:49:09;;;;;;;7.67;3.73;;;30.00;37.10;;;;;;5059246;28;20847;-89
2022/08/03 08:51:39;;;;;;;4.70;3.30;;;30.30;36.90;;;;;;5065253;28;20509;-92
2022/08/03 08:54:32;;;;;;;7.63;3.37;;;30.40;36.40;;;;;;5062185;28;20451;-88
2022/08/03 08:57:03;;;;;;;7.00;3.30;;;30.50;35.20;;;;;;5084187;28;20497;-89
2022/08/03 08:59:33;;;;;;;10.87;3.53;;;30.50;35.00;;;;;;5092402;28;20460;-89
2022/08/03 09:02:02;;;;;;;2.70;2.50;;;30.70;34.80;;;;;;5066541;28;20545;-89
2022/08/03 09:04:50;;;;;;;5.80;3.17;;;30.80;34.60;;;;;;5090335;28;20435;-88
2022/08/03 09:07:17;;;;;;;3.33;2.60;;;30.80;34.80;;;;;;5094913;28;21009;-90
2022/08/03 09:09:44;;;;;;;3.97;2.73;;;31.00;33.20;;;;;;5052764;28;20454;-90
2022/08/03 09:12:14;;;;;;;10.73;3.33;;;31.30;34.20;;;;;;5075901;28;20458;-88
2022/08/03 09:14:41;;;;;;;2.57;2.37;;;31.50;33.60;;;;;;5077765;28;20435;-88
2022/08/03 09:17:10;;;;;;;8.50;2.83;;;31.80;32.70;;;;;;5095111;28;21417;-88
2022/08/03 09:19:37;;;;;;;5.90;2.90;;;31.90;32.20;;;;;;5049276;28;20559;-92
2022/08/03 09:22:32;;;;;;;5.00;2.80;;;31.90;31.80;;;;;;5044029;28;20888;-89
2022/08/03 09:25:03;;;;;;;5.70;2.50;;;32.20;32.30;;;;;;5061576;28;20534;-88
2022/08/03 09:27:43;;;;;;;8.83;2.73;;;32.50;31.50;;;;;;5042183;28;20468;-91
2022/08/03 09:30:36;;;;;;;3.13;2.77;;;32.60;31.10;;;;;;5051147;28;20515;-90
2022/08/03 09:33:06;;;;;;;2.90;2.43;;;32.80;31.30;;;;;;5076535;28;20520;-88
2022/08/03 09:35:39;;;;;;;3.40;2.57;;;33.00;31.10;;;;;;5059335;28;21044;-90
2022/08/03 09:38:32;;;;;;;2.80;2.40;;;33.20;29.40;;;;;;5058453;28;20486;-88
2022/08/03 09:40:59;;;;;;;2.60;2.33;;;33.30;29.10;;;;;;5071778;28;21092;-87
2022/08/03 09:43:26;;;;;;;6.07;2.80;;;33.30;29.40;;;;;;5075436;28;20542;-89
2022/08/03 09:46:02;;;;;;;2.50;2.40;;;33.40;29.60;;;;;;5050425;28;20765;-88
2022/08/03 09:49:09;;;;;;;3.73;2.27;;;33.50;29.10;;;;;;5062876;28;20443;-87
2022/08/03 09:51:36;;;;;;;2.73;2.50;;;33.80;28.80;;;;;;5077410;28;20956;-90
2022/08/03 09:56:56;;;;;;;4.90;3.07;;;33.90;28.20;;;;;;5056748;28;20463;-90
2022/08/03 09:59:25;;;;;;;3.50;2.17;;;33.90;28.30;;;;;;5078689;28;20443;-90
2022/08/03 10:01:52;;;;;;;3.70;2.67;;;34.20;28.20;;;;;;5058934;28;20803;-87
2022/08/03 10:04:21;;;;;;;2.90;2.70;;;34.20;27.60;;;;;;5052121;28;21242;-90
2022/08/03 10:07:03;;;;;;;2.53;2.33;;;34.20;27.70;;;;;;5057813;28;20479;-90
2022/08/03 10:09:30;;;;;;;2.30;2.10;;;34.50;27.70;;;;;;5058303;28;20644;-88
2022/08/03 10:12:22;;;;;;;2.60;2.40;;;34.40;27.00;;;;;;5073490;28;20446;-90
2022/08/03 10:14:49;;;;;;;3.10;2.40;;;34.40;27.30;;;;;;5084442;28;20616;-90
2022/08/03 10:17:16;;;;;;;5.60;2.30;;;34.50;27.20;;;;;;5097364;28;20467;-89
2022/08/03 10:19:45;;;;;;;3.50;2.73;;;34.70;27.80;;;;;;5075235;28;20451;-90
2022/08/03 10:22:13;;;;;;;6.93;2.60;;;35.00;26.90;;;;;;5094878;28;20504;-92
2022/08/03 10:24:49;;;;;;;5.00;2.13;;;35.30;26.90;;;;;;5073696;28;20479;-89
2022/08/03 10:27:18;;;;;;;2.70;2.60;;;35.20;26.80;;;;;;5099425;28;20531;-88
2022/08/03 10:29:51;;;;;;;2.60;2.40;;;35.10;26.50;;;;;;5076760;28;20453;-90
2022/08/03 10:32:21;;;;;;;3.30;2.30;;;35.30;26.50;;;;;;5066589;28;20817;-88
2022/08/03 10:34:51;;;;;;;6.33;2.63;;;35.40;26.60;;;;;;5068723;28;20442;-89
2022/08/03 10:37:21;;;;;;;4.77;2.80;;;35.80;25.80;;;;;;5080443;28;20459;-88
2022/08/03 10:39:56;;;;;;;2.50;2.30;;;35.80;26.50;;;;;;5080426;28;20465;-90
2022/08/03 10:42:24;;;;;;;2.70;2.50;;;36.10;25.90;;;;;;5066755;28;20902;-88
2022/08/03 10:45:01;;;;;;;3.70;2.87;;;36.30;26.60;;;;;;5097726;28;20443;-89
2022/08/03 10:47:29;;;;;;;2.60;2.40;;;36.30;26.30;;;;;;5058553;28;20972;-88
2022/08/03 10:49:58;;;;;;;1.97;1.87;;;36.30;25.50;;;;;;5098993;28;20825;-88
2022/08/03 10:52:25;;;;;;;2.50;2.30;;;36.30;25.30;;;;;;5099758;28;20448;-88
2022/08/03 10:57:49;;;;;;;2.43;2.20;;;36.30;26.10;;;;;;5079532;28;20423;-89
2022/08/03 11:00:17;;;;;;;3.90;2.70;;;36.20;25.30;;;;;;5076979;28;20943;-88
2022/08/03 11:03:10;;;;;;;2.60;2.40;;;36.30;25.40;;;;;;5077877;28;20435;-88
2022/08/03 11:05:40;;;;;;;3.23;2.77;;;36.50;25.20;;;;;;5044058;28;20466;-89
2022/08/03 11:08:30;;;;;;;2.70;2.50;;;36.60;25.10;;;;;;5073185;28;20460;-88
2022/08/03 11:11:22;;;;;;;2.30;2.10;;;36.90;25.80;;;;;;5091249;28;20496;-88
2022/08/03 11:13:57;;;;;;;2.70;2.50;;;36.90;25.60;;;;;;5051861;28;20517;-90
2022/08/03 11:16:27;;;;;;;2.97;2.73;;;36.90;24.70;;;;;;5097799;28;20478;-88
2022/08/03 11:18:59;;;;;;;4.27;2.47;;;37.10;25.30;;;;;;5083072;28;20505;-89
2022/08/03 11:21:56;;;;;;;2.33;2.23;;;37.30;23.60;;;;;;5095302;28;20434;-88
2022/08/03 11:24:57;;;;;;;2.33;2.23;;;37.30;24.00;;;;;;5095490;28;20528;-88
2022/08/03 11:27:27;;;;;;;2.50;2.30;;;37.50;23.90;;;;;;5078867;28;20455;-90
2022/08/03 11:29:55;;;;;;;2.90;2.70;;;37.80;24.20;;;;;;5093918;28;20439;-88
2022/08/03 11:33:00;;;;;;;2.43;2.23;;;38.10;23.90;;;;;;5062873;28;20474;-88
2022/08/03 11:35:29;;;;;;;2.50;2.30;;;38.00;23.20;;;;;;5093911;28;20463;-88
2022/08/03 11:38:09;;;;;;;1.90;1.80;;;38.20;24.70;;;;;;5076193;28;20484;-88
2022/08/03 11:40:41;;;;;;;5.13;2.00;;;38.40;23.20;;;;;;5060639;28;20465;-92
2022/08/03 11:43:09;;;;;;;3.10;2.30;;;38.60;23.10;;;;;;5048196;28;20439;-89
2022/08/03 11:45:37;;;;;;;2.23;2.13;;;38.60;22.60;;;;;;5077474;28;20459;-88
2022/08/03 11:48:15;;;;;;;2.53;2.43;;;38.60;22.50;;;;;;5094604;28;20493;-89
2022/08/03 11:50:44;;;;;;;2.47;1.83;;;38.40;22.70;;;;;;5089726;28;20459;-89
2022/08/03 11:53:17;;;;;;;2.70;2.10;;;38.40;21.80;;;;;;5078142;28;20439;-88
2022/08/03 11:55:47;;;;;;;2.30;2.10;;;37.80;22.80;;;;;;5081067;28;20490;-89
2022/08/03 11:58:19;;;;;;;2.50;2.00;;;38.00;23.10;;;;;;5085157;28;20894;-89
2022/08/03 12:00:46;;;;;;;2.73;2.37;;;38.00;22.60;;;;;;5097596;28;20930;-89
2022/08/03 12:03:14;;;;;;;2.20;2.10;;;37.80;22.80;;;;;;5093970;28;20450;-91
2022/08/03 12:05:45;;;;;;;3.30;2.47;;;37.90;23.10;;;;;;5072325;28;20547;-88
2022/08/03 12:08:14;;;;;;;1.90;1.80;;;37.70;23.10;;;;;;5074662;28;20471;-87
2022/08/03 12:10:48;;;;;;;2.90;2.60;;;37.70;23.20;;;;;;5048192;28;20531;-90
2022/08/03 12:13:16;;;;;;;3.00;2.53;;;37.50;23.00;;;;;;5058405;28;20455;-89
2022/08/03 12:15:43;;;;;;;2.40;1.90;;;37.70;23.70;;;;;;5074672;28;20466;-92
2022/08/03 12:18:15;;;;;;;2.20;2.10;;;38.30;23.20;;;;;;5058775;28;20507;-88
2022/08/03 12:20:43;;;;;;;2.30;2.20;;;38.50;22.40;;;;;;5071757;28;20448;-88
2022/08/03 12:23:11;;;;;;;1.87;1.77;;;38.60;22.30;;;;;;5045713;28;20456;-89
2022/08/03 12:25:40;;;;;;;2.20;2.10;;;38.30;22.40;;;;;;5059703;28;20451;-90
2022/08/03 12:28:15;;;;;;;2.23;2.03;;;38.10;22.80;;;;;;5070900;28;20911;-88
2022/08/03 12:30:44;;;;;;;2.50;1.90;;;37.80;23.10;;;;;;5056913;28;20454;-90
2022/08/03 12:33:20;;;;;;;3.50;2.43;;;37.80;23.10;;;;;;5049121;28;20450;-88
2022/08/03 12:36:02;;;;;;;2.30;2.10;;;37.80;23.00;;;;;;5038759;28;20467;-89
2022/08/03 12:38:30;;;;;;;2.30;2.20;;;38.30;23.60;;;;;;5059584;28;20521;-90
2022/08/03 12:40:59;;;;;;;2.40;2.20;;;38.50;23.20;;;;;;5055895;28;21256;-89
2022/08/03 12:43:28;;;;;;;2.60;2.50;;;38.70;22.40;;;;;;5068543;28;20447;-89
2022/08/03 12:46:12;;;;;;;2.43;2.23;;;38.80;22.00;;;;;;5080664;28;21061;-89
2022/08/03 12:49:06;;;;;;;2.90;2.00;;;38.70;22.70;;;;;;5069787;28;20558;-89
2022/08/03 12:51:35;;;;;;;2.00;1.90;;;39.00;22.70;;;;;;5063164;28;20458;-89
2022/08/03 12:54:03;;;;;;;2.80;2.60;;;39.00;21.90;;;;;;5076553;28;20534;-91
2022/08/03 12:56:31;;;;;;;5.03;2.00;;;39.00;22.30;;;;;;5067454;28;20462;-92
2022/08/03 13:07:14;;;;;;;1.80;1.70;;;39.20;22.50;;;;;;5070831;28;20435;-90
2022/08/03 13:09:42;;;;;;;2.10;2.00;;;38.90;22.70;;;;;;5076621;28;20509;-88
2022/08/03 13:12:13;;;;;;;3.87;2.70;;;39.10;22.50;;;;;;5071544;28;20424;-90
2022/08/03 13:14:40;;;;;;;1.90;1.77;;;39.00;22.00;;;;;;5077490;28;20467;-88
2022/08/03 13:17:07;;;;;;;2.37;2.27;;;38.60;22.90;;;;;;5101307;28;20486;-88
2022/08/03 13:19:35;;;;;;;1.90;1.80;;;38.90;22.90;;;;;;5082488;28;20427;-89
2022/08/03 13:22:11;;;;;;;2.13;2.03;;;39.40;22.60;;;;;;5070801;28;20870;-90
2022/08/03 13:24:39;;;;;;;2.37;2.17;;;39.50;22.20;;;;;;5085079;28;20478;-89
2022/08/03 13:27:07;;;;;;;2.63;1.80;;;39.60;22.10;;;;;;5062915;28;20969;-89
2022/08/03 13:29:34;;;;;;;2.10;2.00;;;39.70;23.10;;;;;;5079936;28;20831;-89
2022/08/03 13:32:01;;;;;;;2.73;2.30;;;39.90;22.30;;;;;;5094763;28;20446;-88
2022/08/03 13:34:29;;;;;;;2.70;2.37;;;39.70;22.50;;;;;;5095956;28;20582;-90
2022/08/03 13:36:56;;;;;;;1.90;1.80;;;39.60;21.90;;;;;;5095738;28;20486;-88
2022/08/03 13:39:23;;;;;;;8.13;2.00;;;39.10;22.20;;;;;;5046939;28;20448;-90
2022/08/03 13:41:51;;;;;;;2.10;2.00;;;38.90;22.40;;;;;;5075085;28;21302;-88
2022/08/03 13:44:19;;;;;;;2.10;2.00;;;38.80;23.10;;;;;;5074660;28;20447;-88
2022/08/03 13:46:46;;;;;;;2.47;1.90;;;38.90;23.00;;;;;;5097648;28;20550;-88